createdAt,value
2023-03-11T00:03:00.429Z,8.53
2023-03-11T00:08:04.827Z,8.08
2023-03-11T00:13:08.760Z,8.23
2023-03-11T00:18:11.706Z,8.30
2023-03-11T00:23:16.216Z,8.17
2023-03-11T00:28:19.293Z,8.28
2023-03-11T00:33:22.291Z,8.29
2023-03-11T00:38:25.234Z,8.32
2023-03-11T00:43:28.452Z,8.14
2023-03-11T00:48:31.439Z,8.21
2023-03-11T00:53:34.551Z,8.39
2023-03-11T00:58:37.458Z,8.39
2023-03-11T01:03:41.725Z,8.35
2023-03-11T01:08:46.550Z,8.01
2023-03-11T01:13:49.409Z,7.82
2023-03-11T01:18:52.299Z,7.55
2023-03-11T01:23:55.353Z,7.54
2023-03-11T01:28:58.058Z,7.46
2023-03-11T01:34:00.872Z,7.56
2023-03-11T01:39:04.589Z,7.37
2023-03-11T01:44:07.993Z,7.06
2023-03-11T01:49:13.513Z,6.65
2023-03-11T01:54:24.585Z,6.94
2023-03-11T01:59:38.214Z,7.37
2023-03-11T02:04:42.611Z,7.77
2023-03-11T02:09:45.600Z,7.83
2023-03-11T02:14:51.810Z,8.13
2023-03-11T02:20:12.624Z,8.24
2023-03-11T02:25:16.417Z,8.33
2023-03-11T02:30:22.693Z,8.27
2023-03-11T02:35:26.252Z,8.31
2023-03-11T02:40:31.158Z,8.17
2023-03-11T02:45:35.054Z,8.00
2023-03-11T02:50:38.525Z,8.01
2023-03-11T02:55:41.727Z,8.21
2023-03-11T03:00:44.526Z,8.10
2023-03-11T03:05:48.386Z,7.84
2023-03-11T03:10:51.607Z,7.68
2023-03-11T03:15:55.208Z,7.45
2023-03-11T03:20:58.141Z,7.63
2023-03-11T03:26:01.848Z,7.77
2023-03-11T03:31:06.885Z,7.64
2023-03-11T03:36:14.655Z,7.47
2023-03-11T03:41:21.413Z,7.18
2023-03-11T03:46:25.809Z,7.17
2023-03-11T03:51:32.595Z,7.24
2023-03-11T03:56:44.405Z,7.24
2023-03-11T04:01:48.125Z,7.42
2023-03-11T04:06:52.069Z,7.44
2023-03-11T04:11:55.599Z,7.52
2023-03-11T04:16:59.001Z,7.63
2023-03-11T04:22:02.994Z,7.49
2023-03-11T04:27:06.294Z,7.71
2023-03-11T04:32:10.557Z,7.85
2023-03-11T04:37:15.363Z,7.39
2023-03-11T04:42:19.526Z,7.36
2023-03-11T04:47:23.596Z,7.34
2023-03-11T04:52:27.289Z,7.20
2023-03-11T04:57:30.684Z,7.45
2023-03-11T05:02:34.515Z,7.85
2023-03-11T05:07:38.460Z,7.73
2023-03-11T05:12:42.774Z,7.51
2023-03-11T05:17:46.904Z,7.52
2023-03-11T05:22:50.135Z,7.26
2023-03-11T05:27:53.609Z,7.20
2023-03-11T05:32:56.797Z,6.87
2023-03-11T05:38:00.704Z,6.90
2023-03-11T05:43:06.207Z,6.92
2023-03-11T05:48:14.114Z,7.04
2023-03-11T05:53:17.067Z,6.85
2023-03-11T05:58:20.052Z,7.03
2023-03-11T06:03:24.783Z,6.87
2023-03-11T06:08:28.034Z,7.03
2023-03-11T06:13:31.103Z,7.25
2023-03-11T06:18:34.269Z,7.33
2023-03-11T06:23:37.314Z,7.46
2023-03-11T06:28:40.251Z,7.32
2023-03-11T06:33:43.759Z,7.33
2023-03-11T06:38:47.006Z,7.41
2023-03-11T06:43:51.048Z,7.72
2023-03-11T06:48:54.917Z,8.10
2023-03-11T06:53:59.638Z,8.26
2023-03-11T06:59:03.922Z,8.80
2023-03-11T07:04:11.028Z,9.13
2023-03-11T07:09:17.151Z,8.95
2023-03-11T07:14:22.995Z,9.24
2023-03-11T07:19:30.130Z,9.44
2023-03-11T07:24:33.111Z,9.79
2023-03-11T07:29:35.908Z,9.74
2023-03-11T07:34:38.794Z,10.34
2023-03-11T07:39:41.921Z,10.75
2023-03-11T07:44:44.874Z,11.35
2023-03-11T07:49:48.004Z,11.19
2023-03-11T07:54:51.342Z,11.15
2023-03-11T07:59:54.283Z,11.28
2023-03-11T08:04:57.571Z,11.55
2023-03-11T08:10:00.922Z,11.92
2023-03-11T08:15:04.209Z,12.29
2023-03-11T08:20:09.253Z,12.49
2023-03-11T08:25:12.292Z,12.54
2023-03-11T08:30:15.812Z,12.84
2023-03-11T08:35:18.762Z,13.10
2023-03-11T08:40:21.740Z,13.43
2023-03-11T08:45:24.812Z,13.03
2023-03-11T08:50:27.978Z,13.18
2023-03-11T08:55:31.065Z,13.37
2023-03-11T09:00:34.093Z,14.24
2023-03-11T09:05:37.618Z,14.85
2023-03-11T09:10:40.492Z,14.95
2023-03-11T09:15:43.268Z,15.03
2023-03-11T09:20:46.694Z,15.23
2023-03-11T09:25:49.642Z,15.00
2023-03-11T09:30:52.712Z,14.78
2023-03-11T09:35:55.618Z,14.78
2023-03-11T09:41:04.437Z,14.98
2023-03-11T09:46:29.759Z,15.22
2023-03-11T09:51:38.522Z,15.47
2023-03-11T09:56:44.551Z,15.28
2023-03-11T10:01:51.132Z,14.94
2023-03-11T10:06:54.257Z,14.61
2023-03-11T10:12:09.263Z,14.88
2023-03-11T10:17:21.086Z,14.47
2023-03-11T10:22:47.338Z,14.32
2023-03-11T10:27:55.901Z,13.90
2023-03-11T10:33:22.012Z,14.68
2023-03-11T10:38:49.553Z,14.73
2023-03-11T10:44:03.547Z,14.33
2023-03-11T10:49:13.965Z,14.96
2023-03-11T10:54:22.896Z,14.77
2023-03-11T10:59:27.833Z,14.84
2023-03-11T11:04:36.247Z,15.03
2023-03-11T11:09:39.105Z,15.33
2023-03-11T11:14:52.952Z,15.22
2023-03-11T11:19:58.395Z,15.19
2023-03-11T11:25:01.336Z,14.55
2023-03-11T11:30:11.533Z,14.51
2023-03-11T11:35:17.166Z,14.23
2023-03-11T11:40:29.325Z,14.37
2023-03-11T11:45:40.959Z,14.41
2023-03-11T11:50:54.489Z,14.40
2023-03-11T11:55:57.542Z,14.52
2023-03-11T12:01:20.204Z,14.83
2023-03-11T12:06:39.549Z,14.96
2023-03-11T12:11:51.922Z,14.93
2023-03-11T12:17:03.899Z,15.23
2023-03-11T12:22:16.172Z,15.15
2023-03-11T12:27:35.517Z,15.00
2023-03-11T12:32:44.086Z,14.92
2023-03-11T12:37:55.532Z,14.71
2023-03-11T12:42:58.678Z,14.78
2023-03-11T12:48:30.952Z,14.99
2023-03-11T12:53:50.395Z,14.90
2023-03-11T12:59:15.442Z,15.32
2023-03-11T13:04:29.350Z,15.21
2023-03-11T13:09:32.168Z,15.23
2023-03-11T13:14:35.390Z,15.13
2023-03-11T13:19:48.316Z,15.17
2023-03-11T13:24:51.804Z,14.92
2023-03-11T13:30:10.616Z,14.89
2023-03-11T13:35:38.099Z,14.48
2023-03-11T13:40:46.314Z,14.49
2023-03-11T13:45:57.262Z,14.33
2023-03-11T13:51:00.142Z,14.29
2023-03-11T13:56:03.179Z,14.29
2023-03-11T14:01:07.107Z,14.25
2023-03-11T14:06:18.014Z,14.12
2023-03-11T14:11:32.182Z,14.12
2023-03-11T14:16:44.573Z,14.14
2023-03-11T14:21:52.155Z,14.13
2023-03-11T14:26:57.027Z,14.20
2023-03-11T14:32:00.131Z,14.07
2023-03-11T14:37:04.385Z,14.03
2023-03-11T14:42:26.771Z,13.95
2023-03-11T14:47:49.686Z,13.84
2023-03-11T14:53:36.180Z,13.86
2023-03-11T14:59:01.628Z,13.73
2023-03-11T15:04:38.225Z,13.73
2023-03-11T15:09:42.205Z,13.58
2023-03-11T15:14:52.125Z,13.62
2023-03-11T15:19:59.041Z,13.45
2023-03-11T15:25:04.431Z,13.34
2023-03-11T15:30:21.226Z,13.22
2023-03-11T15:35:31.428Z,13.24
2023-03-11T15:40:44.933Z,13.29
2023-03-11T15:45:49.444Z,13.27
2023-03-11T15:50:57.707Z,13.31
2023-03-11T15:56:14.034Z,13.14
2023-03-11T16:01:18.685Z,13.14
2023-03-11T16:06:24.900Z,13.33
2023-03-11T16:11:28.202Z,13.25
2023-03-11T16:16:32.530Z,13.34
2023-03-11T16:21:43.366Z,13.37
2023-03-11T16:26:46.441Z,13.25
2023-03-11T16:31:49.545Z,13.30
2023-03-11T16:36:52.261Z,13.25
2023-03-11T16:41:54.989Z,13.14
2023-03-11T16:46:57.893Z,12.95
2023-03-11T16:52:00.769Z,12.78
2023-03-11T16:57:03.640Z,12.55
2023-03-11T17:02:06.952Z,12.58
2023-03-11T17:07:10.098Z,12.54
2023-03-11T17:12:16.098Z,12.30
2023-03-11T17:17:20.157Z,12.32
2023-03-11T17:22:23.169Z,12.08
2023-03-11T17:27:26.562Z,12.06
2023-03-11T17:32:29.962Z,12.12
2023-03-11T17:37:33.257Z,12.12
2023-03-11T17:42:40.056Z,12.03
2023-03-11T17:47:43.621Z,11.77
2023-03-11T17:52:47.675Z,11.87
2023-03-11T17:57:50.461Z,11.59
2023-03-11T18:02:53.410Z,11.66
2023-03-11T18:07:56.240Z,11.62
2023-03-11T18:12:59.119Z,11.52
2023-03-11T18:18:02.372Z,11.49
2023-03-11T18:23:05.837Z,11.50
2023-03-11T18:28:08.905Z,11.47
2023-03-11T18:33:11.567Z,11.48
2023-03-11T18:38:14.462Z,11.40
2023-03-11T18:43:17.402Z,11.39
2023-03-11T18:48:20.178Z,11.39
2023-03-11T18:53:25.396Z,11.40
2023-03-11T18:58:28.946Z,11.36
2023-03-11T19:03:31.885Z,11.56
2023-03-11T19:08:36.051Z,11.52
2023-03-11T19:13:47.112Z,11.36
2023-03-11T19:18:51.830Z,11.44
2023-03-11T19:23:56.790Z,11.26
2023-03-11T19:28:59.596Z,11.15
2023-03-11T19:34:02.544Z,11.01
2023-03-11T19:39:05.712Z,10.81
2023-03-11T19:44:08.546Z,10.75
2023-03-11T19:49:11.495Z,10.67
2023-03-11T19:54:16.570Z,10.61
2023-03-11T19:59:19.612Z,10.48
2023-03-11T20:04:22.574Z,10.36
2023-03-11T20:09:25.614Z,10.31
2023-03-11T20:14:28.370Z,10.20
2023-03-11T20:19:31.247Z,10.11
2023-03-11T20:24:34.486Z,10.00
2023-03-11T20:29:37.366Z,9.96
2023-03-11T20:34:40.149Z,9.86
2023-03-11T20:39:43.185Z,9.66
2023-03-11T20:44:46.338Z,9.74
2023-03-11T20:49:49.347Z,9.63
2023-03-11T20:54:52.295Z,9.56
2023-03-11T20:59:55.123Z,9.61
2023-03-11T21:04:58.012Z,9.64
2023-03-11T21:10:02.575Z,9.49
2023-03-11T21:15:08.543Z,9.47
2023-03-11T21:20:12.302Z,9.39
2023-03-11T21:25:15.190Z,9.40
2023-03-11T21:30:18.419Z,9.52
2023-03-11T21:35:21.436Z,9.55
2023-03-11T21:40:24.458Z,9.47
2023-03-11T21:45:28.217Z,9.53
2023-03-11T21:50:33.310Z,9.50
2023-03-11T21:55:36.480Z,9.31
2023-03-11T22:00:40.426Z,9.31
2023-03-11T22:05:43.490Z,9.57
2023-03-11T22:10:46.658Z,9.59
2023-03-11T22:15:49.737Z,9.67
2023-03-11T22:20:52.835Z,9.63
2023-03-11T22:25:55.989Z,9.63
2023-03-11T22:30:59.090Z,9.50
2023-03-11T22:36:05.317Z,9.27
2023-03-11T22:41:08.501Z,9.12
2023-03-11T22:46:11.655Z,9.10
2023-03-11T22:51:14.546Z,8.90
2023-03-11T22:56:18.632Z,8.77
2023-03-11T23:01:21.621Z,8.59
2023-03-11T23:06:24.742Z,8.59
2023-03-11T23:11:27.774Z,8.65
2023-03-11T23:16:31.656Z,8.46
2023-03-11T23:21:35.838Z,8.56
2023-03-11T23:26:38.902Z,8.60
2023-03-11T23:31:41.857Z,8.51
2023-03-11T23:36:44.714Z,8.23
2023-03-11T23:41:47.565Z,8.19
2023-03-11T23:46:50.497Z,8.12
2023-03-11T23:51:54.198Z,8.05
2023-03-11T23:56:57.537Z,8.15
